Time;durP1;ratioP1;P1;durP2;ratioP2;P2;SDS_P1;SDS_P2;PMS_P1;PMS_P2;Temp;Humidity;BMP_temperature;BMP_pressure;BME280_temperature;BME280_humidity;BME280_pressure;Samples;Min_cycle;Max_cycle;Signal;HPM_P1;HPM_P2
2023/03/16 00:00:47;;;;;;;1.60;0.60;;;3.70;99.90;;;;;;5057473;28;20040;-72
2023/03/16 00:03:19;;;;;;;1.13;0.63;;;3.70;99.90;;;;;;5070114;28;20060;-72
2023/03/16 00:05:49;;;;;;;1.98;0.93;;;3.70;99.90;;;;;;5072948;28;20047;-72
2023/03/16 00:08:16;;;;;;;2.83;1.00;;;3.70;99.90;;;;;;5067121;28;20036;-72
2023/03/16 00:10:45;;;;;;;2.55;1.02;;;3.70;99.90;;;;;;5070970;28;20127;-72
2023/03/16 00:13:15;;;;;;;1.05;0.60;;;3.70;99.90;;;;;;5051465;28;20444;-72
2023/03/16 00:15:51;;;;;;;1.88;0.75;;;3.70;99.90;;;;;;5071760;28;20043;-72
2023/03/16 00:18:17;;;;;;;2.03;0.95;;;3.70;99.90;;;;;;5070321;28;20040;-72
2023/03/16 00:20:42;;;;;;;1.48;0.80;;;3.70;99.90;;;;;;5070472;28;20148;-72
2023/03/16 00:23:08;;;;;;;1.75;0.90;;;3.70;99.90;;;;;;5068710;28;20032;-72
2023/03/16 00:25:33;;;;;;;1.55;0.65;;;3.70;99.90;;;;;;5085872;28;20055;-72
2023/03/16 00:28:02;;;;;;;2.67;0.93;;;3.70;99.90;;;;;;5068768;28;20040;-72
2023/03/16 00:30:29;;;;;;;2.65;0.77;;;3.70;99.90;;;;;;5047813;28;20033;-72
2023/03/16 00:32:54;;;;;;;1.45;0.70;;;3.70;99.90;;;;;;5102994;28;20052;-72
2023/03/16 00:35:20;;;;;;;2.80;1.10;;;3.70;99.90;;;;;;5053956;28;20379;-72
2023/03/16 00:37:46;;;;;;;2.25;1.02;;;3.70;99.90;;;;;;5071513;28;21375;-72
2023/03/16 00:40:12;;;;;;;2.63;0.85;;;3.70;99.90;;;;;;5052553;28;20411;-72
2023/03/16 00:42:38;;;;;;;1.88;1.10;;;3.80;99.90;;;;;;5105597;28;20036;-72
2023/03/16 00:45:04;;;;;;;1.95;0.80;;;3.80;99.90;;;;;;5072344;28;20445;-72
2023/03/16 00:47:31;;;;;;;1.65;0.70;;;3.80;99.90;;;;;;5067499;28;20078;-72
2023/03/16 00:49:58;;;;;;;2.38;1.00;;;3.80;99.90;;;;;;5066055;28;20041;-72
2023/03/16 00:52:26;;;;;;;2.35;1.20;;;3.80;99.90;;;;;;5098879;28;20062;-72
2023/03/16 00:54:52;;;;;;;2.60;1.00;;;3.80;99.90;;;;;;5073644;28;20036;-72
2023/03/16 00:57:18;;;;;;;3.72;0.80;;;3.80;99.90;;;;;;5069490;28;20040;-72
2023/03/16 00:59:45;;;;;;;4.05;0.88;;;3.80;99.90;;;;;;5068022;28;20036;-72
2023/03/16 01:02:11;;;;;;;3.38;1.13;;;3.80;99.90;;;;;;5057803;28;20127;-72
2023/03/16 01:04:38;;;;;;;3.63;1.55;;;3.80;99.90;;;;;;5068450;28;20127;-72
2023/03/16 01:07:05;;;;;;;3.70;1.42;;;3.90;99.90;;;;;;5064305;28;20449;-72
2023/03/16 01:09:35;;;;;;;2.58;1.27;;;3.90;99.90;;;;;;5072172;28;20545;-72
2023/03/16 01:12:13;;;;;;;3.88;1.77;;;3.90;99.90;;;;;;5057029;28;20048;-72
2023/03/16 01:14:40;;;;;;;1.73;1.30;;;3.90;99.90;;;;;;5072425;28;20071;-72
2023/03/16 01:17:07;;;;;;;3.05;1.33;;;3.90;99.90;;;;;;5076140;28;20040;-72
2023/03/16 01:19:34;;;;;;;5.85;0.93;;;3.90;99.90;;;;;;5074047;28;20056;-72
2023/03/16 01:22:01;;;;;;;3.38;1.38;;;3.90;99.90;;;;;;5075669;28;20032;-72
2023/03/16 01:24:27;;;;;;;2.95;1.00;;;3.90;99.90;;;;;;5075470;28;20052;-72
2023/03/16 01:26:53;;;;;;;4.80;1.45;;;3.90;99.90;;;;;;5074471;28;20040;-72
2023/03/16 01:29:18;;;;;;;4.63;1.67;;;4.00;99.90;;;;;;5074754;28;20093;-72
2023/03/16 01:31:44;;;;;;;3.30;1.17;;;4.00;99.90;;;;;;5078977;28;20047;-72
2023/03/16 01:34:15;;;;;;;2.85;1.10;;;4.00;99.90;;;;;;5077440;28;20041;-72
2023/03/16 01:36:43;;;;;;;2.47;1.55;;;4.00;99.90;;;;;;5054758;28;20874;-72
2023/03/16 01:39:10;;;;;;;5.05;1.40;;;4.00;99.90;;;;;;5060311;28;20051;-72
2023/03/16 01:41:36;;;;;;;2.22;1.30;;;4.00;99.90;;;;;;5074690;28;20036;-72
2023/03/16 01:44:02;;;;;;;3.03;1.15;;;4.00;99.90;;;;;;5071747;28;20048;-72
2023/03/16 01:46:28;;;;;;;6.93;1.98;;;4.00;99.90;;;;;;5071759;28;20095;-72
2023/03/16 01:49:07;;;;;;;2.45;1.10;;;4.00;99.90;;;;;;5072613;28;20520;-72
2023/03/16 01:51:35;;;;;;;2.30;1.10;;;4.00;99.90;;;;;;5070481;28;20469;-72
2023/03/16 01:54:13;;;;;;;3.25;1.23;;;4.00;99.90;;;;;;5070067;28;20494;-72
2023/03/16 01:56:45;;;;;;;2.50;1.20;;;4.00;99.90;;;;;;5056863;28;20035;-72
2023/03/16 01:59:15;;;;;;;4.45;1.25;;;4.00;99.90;;;;;;5056609;28;20067;-72
2023/03/16 02:01:41;;;;;;;8.15;1.30;;;4.00;99.90;;;;;;5071003;28;20394;-72
2023/03/16 02:04:35;;;;;;;2.60;1.40;;;4.00;99.90;;;;;;5074422;28;20039;-72
2023/03/16 02:07:04;;;;;;;1.83;1.05;;;4.00;99.90;;;;;;5100570;27;20601;-72
2023/03/16 02:09:30;;;;;;;2.55;0.80;;;4.00;99.90;;;;;;5053274;28;20032;-72
2023/03/16 02:11:57;;;;;;;2.33;1.55;;;4.00;99.90;;;;;;5101053;27;20045;-72
2023/03/16 02:14:23;;;;;;;3.30;1.20;;;4.00;99.90;;;;;;5071956;28;20036;-72
2023/03/16 02:16:50;;;;;;;2.00;1.10;;;3.90;99.90;;;;;;5056571;28;20051;-72
2023/03/16 02:19:44;;;;;;;2.72;1.42;;;4.00;99.90;;;;;;5053161;28;20032;-72
2023/03/16 02:22:12;;;;;;;2.83;1.20;;;4.00;99.90;;;;;;5047806;28;20048;-72
2023/03/16 02:24:38;;;;;;;2.60;1.30;;;4.00;99.90;;;;;;5059744;28;20040;-72
2023/03/16 02:27:09;;;;;;;5.00;1.38;;;4.00;99.90;;;;;;5072730;28;20044;-72
2023/03/16 02:29:58;;;;;;;2.08;1.05;;;3.90;99.90;;;;;;5071692;28;20126;-72
2023/03/16 02:32:25;;;;;;;2.22;1.42;;;3.90;99.90;;;;;;5068942;28;20044;-72
2023/03/16 02:34:52;;;;;;;2.25;1.20;;;4.00;99.90;;;;;;5084654;28;20020;-72
2023/03/16 02:37:17;;;;;;;2.13;1.20;;;4.00;99.90;;;;;;5067255;28;20032;-72
2023/03/16 02:39:43;;;;;;;2.05;1.00;;;4.00;99.90;;;;;;5069946;28;20406;-72
2023/03/16 02:42:16;;;;;;;4.45;1.10;;;4.00;99.90;;;;;;5055639;28;20051;-72
2023/03/16 02:44:47;;;;;;;1.73;1.05;;;4.00;99.90;;;;;;5056055;28;20097;-72
2023/03/16 02:47:36;;;;;;;4.05;1.48;;;4.00;99.90;;;;;;5107066;27;20397;-72
2023/03/16 02:50:06;;;;;;;3.65;1.38;;;4.00;99.90;;;;;;5058541;28;20036;-72
2023/03/16 02:52:36;;;;;;;2.13;0.95;;;4.00;99.90;;;;;;5068985;28;20473;-72
2023/03/16 02:55:05;;;;;;;1.77;1.00;;;4.10;99.90;;;;;;5071092;28;20113;-72
2023/03/16 02:57:31;;;;;;;1.70;0.95;;;4.00;99.90;;;;;;5104766;27;20086;-72
2023/03/16 02:59:56;;;;;;;2.38;0.98;;;4.10;99.90;;;;;;5068177;28;20047;-72
2023/03/16 03:02:22;;;;;;;3.75;1.10;;;4.10;99.90;;;;;;5070964;28;20038;-72
2023/03/16 03:04:48;;;;;;;2.95;1.20;;;4.10;99.90;;;;;;5053697;28;20040;-72
2023/03/16 03:07:14;;;;;;;2.35;1.30;;;4.10;99.90;;;;;;5072713;28;20040;-72
2023/03/16 03:09:41;;;;;;;3.38;1.00;;;4.10;99.90;;;;;;5053981;28;20081;-72
2023/03/16 03:12:11;;;;;;;2.50;1.00;;;4.10;99.90;;;;;;5070776;28;20049;-72
2023/03/16 03:14:38;;;;;;;2.33;1.10;;;4.10;99.90;;;;;;5057579;28;20578;-72
2023/03/16 03:17:08;;;;;;;1.35;0.90;;;4.10;99.90;;;;;;5064033;28;20098;-72
2023/03/16 03:19:35;;;;;;;2.60;1.15;;;4.10;99.90;;;;;;5070927;28;20073;-72
2023/03/16 03:22:03;;;;;;;3.85;1.02;;;4.10;99.90;;;;;;5075504;28;20040;-72
2023/03/16 03:24:30;;;;;;;2.92;1.20;;;4.10;99.90;;;;;;5105446;27;20054;-72
2023/03/16 03:26:57;;;;;;;2.08;1.30;;;4.10;99.90;;;;;;5057718;28;20294;-72
2023/03/16 03:29:22;;;;;;;2.55;1.13;;;4.10;99.90;;;;;;5079228;28;20064;-72
2023/03/16 03:31:48;;;;;;;4.53;1.23;;;4.10;99.90;;;;;;5071859;28;20112;-72
2023/03/16 03:34:14;;;;;;;3.92;1.20;;;4.20;99.90;;;;;;5057857;28;20048;-72
2023/03/16 03:36:40;;;;;;;2.15;1.02;;;4.20;99.90;;;;;;5070420;28;20036;-72
2023/03/16 03:39:06;;;;;;;2.75;1.13;;;4.20;99.90;;;;;;5073861;28;20560;-72
2023/03/16 03:41:32;;;;;;;3.85;1.23;;;4.20;99.90;;;;;;5072607;28;20032;-72
2023/03/16 03:43:58;;;;;;;3.13;1.00;;;4.20;99.90;;;;;;5072298;28;20497;-72
2023/03/16 03:46:25;;;;;;;4.15;1.10;;;4.20;99.90;;;;;;5064740;28;20087;-72
2023/03/16 03:48:50;;;;;;;2.78;1.33;;;4.20;99.90;;;;;;5105787;27;20029;-72
2023/03/16 03:51:16;;;;;;;2.53;0.95;;;4.20;99.90;;;;;;5070713;28;20035;-72
2023/03/16 03:53:42;;;;;;;5.60;1.65;;;4.20;99.90;;;;;;5072762;28;20423;-72
2023/03/16 03:56:07;;;;;;;1.55;0.90;;;4.30;99.90;;;;;;5088725;28;20119;-72
2023/03/16 03:58:33;;;;;;;4.93;1.40;;;4.20;99.90;;;;;;5070394;28;20106;-72
2023/03/16 04:00:58;;;;;;;2.95;1.40;;;4.20;99.90;;;;;;5070172;28;20048;-72
2023/03/16 04:03:24;;;;;;;2.22;1.08;;;4.20;99.90;;;;;;5049043;28;20136;-72
2023/03/16 04:05:50;;;;;;;3.53;1.58;;;4.20;99.90;;;;;;5052942;28;20062;-72
2023/03/16 04:08:15;;;;;;;3.95;1.13;;;4.20;99.90;;;;;;5070539;28;20032;-72
2023/03/16 04:10:41;;;;;;;2.55;1.23;;;4.20;99.90;;;;;;5069778;28;20060;-72
2023/03/16 04:13:06;;;;;;;2.65;1.05;;;4.20;99.90;;;;;;5070644;28;20049;-72
2023/03/16 04:15:32;;;;;;;1.77;1.10;;;4.30;99.90;;;;;;5066795;28;20040;-72
2023/03/16 04:17:58;;;;;;;4.50;1.13;;;4.30;99.90;;;;;;5070739;28;20043;-72
2023/03/16 04:20:24;;;;;;;4.07;1.40;;;4.30;99.90;;;;;;5069122;28;20040;-72
2023/03/16 04:22:57;;;;;;;1.98;0.90;;;4.30;99.90;;;;;;5071938;28;20044;-72
2023/03/16 04:25:24;;;;;;;2.60;1.27;;;4.30;99.90;;;;;;5074459;28;20101;-72
2023/03/16 04:27:50;;;;;;;3.35;1.40;;;4.30;99.90;;;;;;5052194;28;20499;-72
2023/03/16 04:30:15;;;;;;;3.33;1.30;;;4.30;99.90;;;;;;5071352;28;20446;-72
2023/03/16 04:32:41;;;;;;;1.98;0.98;;;4.30;99.90;;;;;;5071346;28;20040;-72
2023/03/16 04:35:08;;;;;;;7.95;1.30;;;4.30;99.90;;;;;;5051438;28;20044;-72
2023/03/16 04:37:34;;;;;;;3.03;1.02;;;4.30;99.90;;;;;;5053687;28;20086;-72
2023/03/16 04:39:59;;;;;;;5.82;1.35;;;4.30;99.90;;;;;;5105294;27;20055;-72
2023/03/16 04:42:25;;;;;;;3.05;1.20;;;4.30;99.90;;;;;;5073660;28;20182;-72
2023/03/16 04:44:51;;;;;;;2.55;1.20;;;4.30;99.90;;;;;;5056361;28;20055;-72
2023/03/16 04:47:16;;;;;;;2.90;1.10;;;4.40;99.90;;;;;;5074787;28;20043;-72
2023/03/16 04:49:42;;;;;;;3.42;0.80;;;4.40;99.90;;;;;;5102376;27;20043;-72
2023/03/16 04:52:08;;;;;;;3.60;1.10;;;4.40;99.90;;;;;;5076233;28;20044;-72
2023/03/16 04:54:34;;;;;;;2.47;1.35;;;4.40;99.90;;;;;;5089462;28;20084;-72
2023/03/16 04:57:02;;;;;;;4.47;1.50;;;4.40;99.90;;;;;;5057701;28;20589;-72
2023/03/16 04:59:28;;;;;;;3.17;1.02;;;4.40;99.90;;;;;;5068518;28;20123;-72
2023/03/16 05:01:54;;;;;;;2.05;1.20;;;4.40;99.90;;;;;;5069358;28;20036;-72
2023/03/16 05:04:20;;;;;;;2.53;1.23;;;4.40;99.90;;;;;;5075917;28;20036;-72
2023/03/16 05:06:46;;;;;;;2.45;1.40;;;4.40;99.90;;;;;;5073480;28;20549;-72
2023/03/16 05:09:12;;;;;;;2.92;0.98;;;4.40;99.90;;;;;;5056475;28;20111;-72
2023/03/16 05:11:38;;;;;;;1.90;1.10;;;4.40;99.90;;;;;;5081230;28;20545;-72
2023/03/16 05:14:04;;;;;;;2.78;1.50;;;4.40;99.90;;;;;;5082512;28;20064;-72
2023/03/16 05:16:30;;;;;;;2.17;0.88;;;4.40;99.90;;;;;;5077818;28;20043;-72
2023/03/16 05:19:00;;;;;;;3.72;1.10;;;4.40;99.90;;;;;;5078666;28;20059;-72
2023/03/16 05:21:26;;;;;;;1.48;0.90;;;4.40;99.90;;;;;;5109286;27;20100;-72
2023/03/16 05:23:51;;;;;;;2.92;1.17;;;4.40;99.90;;;;;;5082990;28;20040;-72
2023/03/16 05:26:17;;;;;;;3.97;1.13;;;4.40;99.90;;;;;;5065306;28;20024;-72
2023/03/16 05:28:44;;;;;;;3.67;1.23;;;4.40;99.90;;;;;;5086396;28;20058;-72
2023/03/16 05:31:10;;;;;;;2.00;1.15;;;4.40;99.90;;;;;;5074645;28;20040;-72
2023/03/16 05:33:36;;;;;;;2.97;1.20;;;4.40;99.90;;;;;;5072868;28;20034;-72
2023/03/16 05:36:02;;;;;;;3.28;1.27;;;4.40;99.90;;;;;;5072900;28;20028;-72
2023/03/16 05:38:30;;;;;;;2.60;1.23;;;4.40;99.90;;;;;;5076218;28;20064;-72
2023/03/16 05:41:00;;;;;;;1.52;0.80;;;4.40;99.90;;;;;;5073567;28;20084;-72
2023/03/16 05:43:27;;;;;;;3.28;1.58;;;4.40;99.90;;;;;;5073297;28;20562;-71
2023/03/16 05:45:53;;;;;;;3.30;1.27;;;4.40;99.90;;;;;;5055248;28;20073;-72
2023/03/16 05:48:20;;;;;;;2.83;1.23;;;4.40;99.90;;;;;;5073219;28;20040;-72
2023/03/16 05:50:46;;;;;;;3.50;1.42;;;4.40;99.90;;;;;;5088122;28;20032;-72
2023/03/16 05:53:11;;;;;;;2.28;1.17;;;4.40;99.90;;;;;;5072991;28;20040;-72
2023/03/16 05:55:37;;;;;;;2.78;1.40;;;4.50;99.90;;;;;;5073773;28;20040;-72
2023/03/16 05:58:03;;;;;;;2.20;1.00;;;4.50;99.90;;;;;;5073514;28;20218;-72
2023/03/16 06:00:29;;;;;;;3.30;1.13;;;4.50;99.90;;;;;;5072993;28;20556;-72
2023/03/16 06:02:54;;;;;;;2.33;1.00;;;4.50;99.90;;;;;;5051905;28;20040;-72
2023/03/16 06:05:21;;;;;;;4.85;1.58;;;4.50;99.90;;;;;;5054806;28;20073;-72
2023/03/16 06:07:47;;;;;;;1.67;1.05;;;4.50;99.90;;;;;;5092619;28;20036;-72
2023/03/16 06:10:13;;;;;;;3.33;1.67;;;4.50;99.90;;;;;;5072303;28;20084;-72
2023/03/16 06:12:40;;;;;;;2.60;1.23;;;4.50;99.90;;;;;;5055558;28;20502;-72
2023/03/16 06:15:07;;;;;;;1.85;0.90;;;4.50;99.90;;;;;;5053570;28;20051;-72
2023/03/16 06:17:34;;;;;;;5.30;1.63;;;4.50;99.90;;;;;;5104314;27;20036;-72
2023/03/16 06:20:00;;;;;;;4.22;1.60;;;4.50;99.90;;;;;;5069493;28;20040;-72
2023/03/16 06:22:26;;;;;;;2.40;0.95;;;4.50;99.90;;;;;;5109751;27;20385;-71
2023/03/16 06:24:52;;;;;;;3.10;1.20;;;4.50;99.90;;;;;;5076640;28;20449;-72
2023/03/16 06:27:19;;;;;;;1.70;1.00;;;4.50;99.90;;;;;;5071556;28;20123;-72
2023/03/16 06:29:46;;;;;;;2.78;1.10;;;4.50;99.90;;;;;;5044432;28;20028;-72
2023/03/16 06:32:12;;;;;;;2.70;1.10;;;4.50;99.90;;;;;;5072123;28;20085;-72
2023/03/16 06:34:38;;;;;;;4.10;1.00;;;4.50;99.90;;;;;;5057592;28;20481;-72
2023/03/16 06:37:04;;;;;;;3.17;1.17;;;4.50;99.90;;;;;;5061349;28;20469;-72
2023/03/16 06:39:29;;;;;;;2.30;1.10;;;4.50;99.90;;;;;;5105116;27;20048;-72
2023/03/16 06:41:55;;;;;;;3.20;1.30;;;4.60;99.90;;;;;;5071957;28;20051;-72
2023/03/16 06:44:21;;;;;;;2.30;0.88;;;4.60;99.90;;;;;;5078661;28;20101;-72
2023/03/16 06:46:46;;;;;;;6.00;1.60;;;4.60;99.90;;;;;;5072260;28;20134;-72
2023/03/16 06:49:12;;;;;;;2.33;1.02;;;4.60;99.90;;;;;;5074595;28;20059;-72
2023/03/16 06:51:37;;;;;;;4.43;1.00;;;4.70;99.90;;;;;;5075938;28;20363;-72
2023/03/16 06:54:03;;;;;;;3.35;1.23;;;4.70;99.90;;;;;;5075359;28;20512;-72
2023/03/16 06:56:30;;;;;;;2.75;1.27;;;4.70;99.90;;;;;;5083590;28;20484;-72
2023/03/16 06:58:56;;;;;;;4.63;1.20;;;4.70;99.90;;;;;;5077464;28;20094;-72
2023/03/16 07:01:22;;;;;;;2.25;1.10;;;4.70;99.90;;;;;;5068331;28;20703;-72
2023/03/16 07:03:48;;;;;;;3.40;1.45;;;4.80;99.90;;;;;;5068846;28;20030;-72
2023/03/16 07:06:14;;;;;;;3.42;1.65;;;4.80;99.90;;;;;;5073101;28;20084;-72
2023/03/16 07:08:41;;;;;;;3.95;1.80;;;4.80;99.90;;;;;;5071223;28;20043;-72
2023/03/16 07:11:07;;;;;;;2.75;1.10;;;4.80;99.90;;;;;;5056007;28;20136;-75
2023/03/16 07:13:34;;;;;;;3.97;1.63;;;4.90;99.90;;;;;;5085851;28;20131;-72
2023/03/16 07:16:00;;;;;;;2.53;1.30;;;4.90;99.90;;;;;;5072656;28;20089;-72
2023/03/16 07:18:25;;;;;;;2.33;1.13;;;4.90;99.90;;;;;;5069387;28;20044;-72
2023/03/16 07:20:52;;;;;;;2.55;1.10;;;5.00;99.90;;;;;;5053612;28;20119;-72
2023/03/16 07:23:18;;;;;;;2.75;1.17;;;4.90;99.90;;;;;;5052600;28;20059;-72
2023/03/16 07:25:44;;;;;;;4.60;1.10;;;5.00;99.90;;;;;;5072371;28;20043;-72
2023/03/16 07:28:10;;;;;;;3.63;1.05;;;5.00;99.90;;;;;;5050890;28;20455;-72
2023/03/16 07:30:36;;;;;;;3.05;1.40;;;5.00;99.90;;;;;;5069051;28;20032;-72
2023/03/16 07:33:02;;;;;;;2.63;1.35;;;5.00;99.90;;;;;;5067874;28;20126;-72
2023/03/16 07:35:28;;;;;;;2.10;1.10;;;5.00;99.90;;;;;;5064800;28;20380;-72
2023/03/16 07:37:54;;;;;;;1.83;0.88;;;5.00;99.90;;;;;;5067348;28;20048;-72
2023/03/16 07:40:19;;;;;;;2.97;1.13;;;5.10;99.90;;;;;;5072427;28;20463;-72
2023/03/16 07:42:45;;;;;;;2.45;0.98;;;5.10;99.90;;;;;;5066531;28;20079;-72
2023/03/16 07:45:12;;;;;;;2.05;1.05;;;5.10;99.90;;;;;;5070527;28;20825;-72
2023/03/16 07:47:37;;;;;;;3.08;1.30;;;5.10;99.90;;;;;;5102250;27;20090;-72
2023/03/16 07:50:04;;;;;;;3.95;1.25;;;5.10;99.90;;;;;;5064276;28;20145;-72
2023/03/16 07:52:29;;;;;;;2.28;1.35;;;5.20;99.90;;;;;;5071676;28;20043;-72
2023/03/16 07:54:55;;;;;;;3.50;1.67;;;5.20;99.90;;;;;;5070837;28;20639;-72
2023/03/16 07:57:21;;;;;;;1.67;1.00;;;5.20;99.90;;;;;;5104785;27;20072;-72
2023/03/16 07:59:47;;;;;;;4.65;1.20;;;5.30;99.90;;;;;;5069878;28;20044;-72
2023/03/16 08:02:17;;;;;;;1.98;0.95;;;5.30;99.90;;;;;;5056141;28;20032;-72
2023/03/16 08:04:43;;;;;;;2.95;1.20;;;5.30;99.90;;;;;;5067377;28;20080;-72
2023/03/16 08:07:10;;;;;;;2.22;1.10;;;5.30;99.90;;;;;;5054625;28;20050;-72
2023/03/16 08:09:36;;;;;;;1.90;1.10;;;5.30;99.90;;;;;;5069118;28;20036;-72
2023/03/16 08:12:04;;;;;;;3.72;1.45;;;5.30;99.90;;;;;;5069935;28;20118;-72
2023/03/16 08:14:33;;;;;;;2.53;1.10;;;5.40;99.90;;;;;;5090162;28;20044;-72
2023/03/16 08:17:03;;;;;;;1.67;1.00;;;5.40;99.90;;;;;;5069892;28;20040;-72
2023/03/16 08:19:28;;;;;;;5.97;1.40;;;5.40;99.90;;;;;;5072365;28;20085;-72
2023/03/16 08:21:54;;;;;;;2.15;1.15;;;5.40;99.90;;;;;;5068695;28;20040;-72
2023/03/16 08:24:19;;;;;;;5.82;1.73;;;5.40;99.90;;;;;;5072487;28;20408;-72
2023/03/16 08:26:46;;;;;;;5.30;1.35;;;5.40;99.90;;;;;;5077684;28;20170;-72
2023/03/16 08:29:12;;;;;;;3.53;1.05;;;5.40;99.90;;;;;;5090011;27;20037;-72
2023/03/16 08:31:38;;;;;;;4.15;1.42;;;5.40;99.90;;;;;;5070090;28;21013;-72
2023/03/16 08:34:04;;;;;;;2.67;1.52;;;5.40;99.90;;;;;;5055613;28;20040;-72
2023/03/16 08:36:30;;;;;;;1.67;1.08;;;5.50;99.90;;;;;;5084873;28;20389;-72
2023/03/16 08:38:56;;;;;;;2.85;1.33;;;5.50;99.90;;;;;;5090135;28;20036;-72
2023/03/16 08:41:22;;;;;;;2.80;1.30;;;5.50;99.90;;;;;;5083448;28;20481;-72
2023/03/16 08:43:48;;;;;;;3.53;1.20;;;5.50;99.90;;;;;;5090597;28;20032;-72
2023/03/16 08:46:14;;;;;;;2.75;1.40;;;5.50;99.90;;;;;;5085555;28;20397;-73
2023/03/16 08:48:40;;;;;;;4.82;1.38;;;5.50;99.90;;;;;;5073860;28;20488;-72
2023/03/16 08:51:08;;;;;;;4.25;1.42;;;5.50;99.90;;;;;;5072644;28;20249;-72
2023/03/16 08:53:35;;;;;;;2.45;1.30;;;5.50;99.90;;;;;;5090387;28;20036;-72
2023/03/16 08:56:05;;;;;;;3.30;1.27;;;5.50;99.90;;;;;;5091975;28;20163;-72
2023/03/16 08:58:33;;;;;;;5.28;1.20;;;5.50;99.90;;;;;;5089417;28;20036;-72
2023/03/16 09:00:59;;;;;;;2.65;1.30;;;5.50;99.90;;;;;;5089049;28;20046;-72
2023/03/16 09:03:26;;;;;;;2.08;1.02;;;5.50;99.90;;;;;;5090185;28;20032;-72
2023/03/16 09:05:52;;;;;;;3.13;0.98;;;5.50;99.90;;;;;;5089182;28;20492;-72
2023/03/16 09:08:18;;;;;;;3.50;1.67;;;5.50;99.90;;;;;;5090092;28;20044;-72
2023/03/16 09:10:44;;;;;;;3.67;1.38;;;5.50;99.90;;;;;;5090497;28;20043;-72
2023/03/16 09:13:10;;;;;;;3.08;1.33;;;5.50;99.90;;;;;;5084063;28;20562;-72
2023/03/16 09:15:37;;;;;;;3.15;1.10;;;5.50;99.90;;;;;;5072951;28;20036;-72
2023/03/16 09:18:04;;;;;;;2.17;1.40;;;5.50;99.90;;;;;;5090508;28;20260;-72
2023/03/16 09:20:30;;;;;;;3.70;1.40;;;5.50;99.90;;;;;;5088777;28;20028;-72
2023/03/16 09:22:56;;;;;;;3.50;1.10;;;5.50;99.90;;;;;;5090412;28;20131;-72
2023/03/16 09:25:23;;;;;;;4.13;1.50;;;5.50;99.90;;;;;;5089557;28;20043;-72
2023/03/16 09:27:48;;;;;;;3.47;1.55;;;5.60;99.90;;;;;;5085855;28;20074;-72
2023/03/16 09:30:15;;;;;;;2.90;1.20;;;5.60;99.90;;;;;;5087569;28;20510;-72
2023/03/16 09:32:41;;;;;;;4.03;1.40;;;5.60;99.90;;;;;;5090120;28;20036;-72
2023/03/16 09:35:08;;;;;;;4.13;1.40;;;5.60;99.90;;;;;;5057671;28;20035;-72
2023/03/16 09:37:33;;;;;;;4.22;1.42;;;5.60;99.90;;;;;;5077623;28;20199;-72
2023/03/16 09:40:00;;;;;;;3.53;1.20;;;5.60;99.90;;;;;;5078241;28;20465;-71
2023/03/16 09:42:40;;;;;;;3.97;1.10;;;5.70;99.90;;;;;;5079444;28;20414;-71
2023/03/16 09:45:25;;;;;;;4.05;2.00;;;5.70;99.90;;;;;;5089982;28;20112;-71
2023/03/16 09:47:57;;;;;;;3.80;1.60;;;5.80;99.90;;;;;;5069207;28;20082;-71
2023/03/16 09:50:27;;;;;;;3.17;1.25;;;5.80;99.90;;;;;;5104679;27;20055;-71
2023/03/16 09:53:14;;;;;;;2.78;1.13;;;5.80;99.90;;;;;;5075522;28;20494;-71
2023/03/16 09:55:45;;;;;;;3.97;1.50;;;5.90;99.90;;;;;;5081865;28;20494;-71
2023/03/16 09:58:20;;;;;;;3.65;1.50;;;5.90;99.90;;;;;;5078563;28;20110;-71
2023/03/16 10:01:00;;;;;;;3.70;1.30;;;6.00;99.90;;;;;;5072112;28;20044;-71
2023/03/16 10:03:53;;;;;;;4.05;1.50;;;6.00;99.90;;;;;;5070538;28;20184;-71
2023/03/16 10:06:19;;;;;;;5.47;1.80;;;6.10;99.90;;;;;;5070503;28;20036;-71
2023/03/16 10:08:58;;;;;;;3.55;1.17;;;6.10;99.90;;;;;;5069144;28;20123;-72
2023/03/16 10:11:38;;;;;;;3.05;1.40;;;6.10;99.90;;;;;;5085661;28;20063;-71
2023/03/16 10:14:16;;;;;;;4.10;2.00;;;6.20;99.90;;;;;;5064786;28;20261;-71
2023/03/16 10:16:54;;;;;;;2.40;1.20;;;6.20;99.90;;;;;;5101748;27;20074;-71
2023/03/16 10:19:46;;;;;;;2.70;1.25;;;6.20;99.90;;;;;;5068016;28;20500;-72
2023/03/16 10:22:19;;;;;;;4.50;1.50;;;6.20;99.90;;;;;;5070196;28;20076;-72
2023/03/16 10:24:55;;;;;;;3.97;1.48;;;6.20;99.90;;;;;;5070962;28;20111;-71
2023/03/16 10:27:48;;;;;;;4.28;2.05;;;6.20;99.90;;;;;;5071499;28;20068;-71
2023/03/16 10:30:21;;;;;;;4.75;1.38;;;6.20;99.90;;;;;;5063698;28;20101;-71
2023/03/16 10:32:48;;;;;;;3.15;1.35;;;6.20;99.90;;;;;;5066103;28;20154;-72
2023/03/16 10:35:28;;;;;;;5.45;1.60;;;6.20;99.90;;;;;;5065843;28;20032;-71
2023/03/16 10:37:56;;;;;;;3.05;1.50;;;6.30;99.90;;;;;;5052035;28;20363;-71
2023/03/16 10:40:22;;;;;;;3.40;1.50;;;6.30;99.90;;;;;;5064615;28;20072;-71
2023/03/16 10:42:48;;;;;;;3.85;1.30;;;6.40;99.90;;;;;;5069613;28;20040;-71
2023/03/16 10:45:30;;;;;;;2.92;1.35;;;6.30;99.90;;;;;;5053866;28;20047;-71
2023/03/16 10:48:07;;;;;;;2.40;1.48;;;6.40;99.90;;;;;;5100406;27;20481;-71
2023/03/16 10:50:33;;;;;;;3.67;0.93;;;6.40;99.90;;;;;;5055149;28;20434;-72
2023/03/16 10:53:00;;;;;;;2.38;1.50;;;6.40;99.90;;;;;;5068350;28;20039;-71
2023/03/16 10:55:29;;;;;;;3.42;1.50;;;6.40;99.90;;;;;;5101330;27;20169;-72
2023/03/16 10:57:55;;;;;;;3.30;1.08;;;6.40;99.90;;;;;;5068846;28;20040;-71
2023/03/16 11:00:25;;;;;;;4.90;1.30;;;6.40;99.90;;;;;;5064573;28;20051;-71
2023/03/16 11:02:55;;;;;;;3.97;0.95;;;6.40;99.90;;;;;;5069081;28;20036;-71
2023/03/16 11:05:27;;;;;;;4.70;1.85;;;6.50;99.90;;;;;;5049568;28;20139;-71
2023/03/16 11:08:03;;;;;;;3.20;1.33;;;6.50;99.90;;;;;;5066842;28;20101;-71
2023/03/16 11:10:34;;;;;;;2.80;1.10;;;6.50;99.90;;;;;;5072565;28;20557;-71
2023/03/16 11:13:07;;;;;;;5.25;1.52;;;6.50;99.90;;;;;;5065839;28;20458;-71
2023/03/16 11:15:45;;;;;;;2.85;1.35;;;6.60;99.90;;;;;;5050459;28;20098;-71
2023/03/16 11:18:32;;;;;;;3.90;1.33;;;6.60;99.90;;;;;;5050199;28;20095;-71
2023/03/16 11:21:05;;;;;;;3.20;1.48;;;6.60;99.90;;;;;;5048723;28;20040;-71
2023/03/16 11:23:34;;;;;;;3.78;1.35;;;6.60;99.90;;;;;;5099633;27;20048;-71
2023/03/16 11:26:06;;;;;;;6.95;1.80;;;6.70;99.90;;;;;;5051190;28;20040;-71
2023/03/16 11:28:45;;;;;;;3.05;1.48;;;6.70;99.90;;;;;;5071489;28;20041;-71
2023/03/16 11:31:48;;;;;;;3.55;1.40;;;6.70;99.90;;;;;;5106787;27;21508;-72
2023/03/16 11:34:18;;;;;;;2.28;1.13;;;6.70;99.90;;;;;;5072954;28;20059;-71
2023/03/16 11:36:53;;;;;;;2.72;1.33;;;6.70;99.90;;;;;;5051436;28;20040;-71
2023/03/16 11:39:39;;;;;;;3.70;1.20;;;6.70;99.90;;;;;;5068275;28;20451;-71
2023/03/16 11:42:26;;;;;;;1.47;0.93;;;6.70;99.90;;;;;;5071030;28;20298;-71
2023/03/16 11:44:58;;;;;;;4.00;1.15;;;6.70;99.90;;;;;;5074751;28;20123;-71
2023/03/16 11:47:42;;;;;;;2.85;1.23;;;6.70;99.90;;;;;;5070103;28;20041;-71
2023/03/16 11:50:21;;;;;;;2.45;1.08;;;6.80;99.90;;;;;;5088278;28;20131;-71
2023/03/16 11:53:03;;;;;;;6.03;1.20;;;6.90;99.90;;;;;;5053683;28;20035;-71
2023/03/16 11:55:44;;;;;;;2.22;1.08;;;6.90;99.90;;;;;;5072879;28;20066;-71
2023/03/16 11:58:12;;;;;;;2.75;1.15;;;7.00;99.90;;;;;;5071352;28;20385;-71
2023/03/16 12:00:57;;;;;;;2.95;1.35;;;7.10;99.90;;;;;;5068561;28;20028;-71
2023/03/16 12:03:52;;;;;;;2.92;1.60;;;7.10;99.90;;;;;;5071143;28;20036;-71
2023/03/16 12:06:37;;;;;;;4.10;1.20;;;7.20;99.90;;;;;;5065621;28;20159;-72
2023/03/16 12:09:38;;;;;;;2.50;1.20;;;7.30;99.90;;;;;;5068440;28;20361;-75
2023/03/16 12:12:38;;;;;;;3.70;1.50;;;7.40;99.90;;;;;;5067068;28;20356;-71
2023/03/16 12:15:15;;;;;;;4.25;1.20;;;7.50;99.90;;;;;;5065201;28;20400;-75
2023/03/16 12:17:42;;;;;;;2.00;1.08;;;7.50;99.90;;;;;;5073620;28;20094;-75
2023/03/16 12:20:19;;;;;;;4.28;1.52;;;7.60;99.90;;;;;;5067260;28;20052;-75
2023/03/16 12:22:57;;;;;;;3.13;1.40;;;7.60;99.90;;;;;;5060771;28;21323;-71
2023/03/16 12:25:29;;;;;;;2.90;1.40;;;7.70;99.90;;;;;;5098416;28;20039;-71
2023/03/16 12:27:59;;;;;;;3.10;1.10;;;7.80;99.90;;;;;;5070107;28;20047;-71
2023/03/16 12:30:49;;;;;;;4.20;1.17;;;7.80;99.90;;;;;;5066643;28;20048;-71
2023/03/16 12:33:52;;;;;;;2.17;1.05;;;7.80;99.90;;;;;;5064106;28;20412;-71
2023/03/16 12:36:33;;;;;;;2.50;1.25;;;7.90;99.90;;;;;;5049237;28;20131;-72
2023/03/16 12:39:04;;;;;;;4.60;1.17;;;7.90;99.90;;;;;;5071986;28;20113;-71
2023/03/16 12:42:08;;;;;;;2.50;1.30;;;8.00;99.90;;;;;;5067874;28;20055;-72
2023/03/16 12:44:44;;;;;;;3.40;1.40;;;8.00;99.90;;;;;;5063941;28;20209;-71
2023/03/16 12:47:38;;;;;;;5.15;1.50;;;8.00;99.90;;;;;;5066186;28;20492;-71
2023/03/16 12:50:17;;;;;;;2.47;1.17;;;8.00;99.90;;;;;;5065294;28;20105;-71
2023/03/16 12:52:49;;;;;;;2.72;1.40;;;8.10;99.90;;;;;;5053812;28;20043;-71
2023/03/16 12:55:23;;;;;;;2.13;0.90;;;8.10;99.90;;;;;;5051056;28;20039;-72
2023/03/16 12:57:57;;;;;;;2.40;1.20;;;8.20;99.90;;;;;;5049700;28;20044;-71
2023/03/16 13:00:36;;;;;;;3.70;1.48;;;8.10;99.90;;;;;;5067244;28;20096;-72
2023/03/16 13:03:03;;;;;;;2.15;0.80;;;8.20;99.90;;;;;;5083601;28;20044;-71
2023/03/16 13:05:42;;;;;;;2.40;0.98;;;8.10;99.90;;;;;;5061978;28;20090;-71
2023/03/16 13:08:14;;;;;;;2.60;1.17;;;8.10;99.90;;;;;;5067026;28;20391;-71
2023/03/16 13:10:41;;;;;;;3.45;1.45;;;8.10;99.90;;;;;;5084952;28;20043;-71